Time;durP1;ratioP1;P1;durP2;ratioP2;P2;SDS_P1;SDS_P2;PMS_P1;PMS_P2;Temp;Humidity;BMP_temperature;BMP_pressure;BME280_temperature;BME280_humidity;BME280_pressure;Samples;Min_cycle;Max_cycle;Signal;HPM_P1;HPM_P2
2022/11/05 00:10:05;;;;;;;1.2;1.2;;;;;;;9.1;100.0;101280;;;;
2022/11/05 00:11:00;;;;;;;1.2;1.2;;;;;;;9.1;100.0;101270;;;;
2022/11/05 00:17:00;;;;;;;1.0;1.0;;;;;;;9.1;100.0;101280;;;;
2022/11/05 00:18:00;;;;;;;1.0;1.0;;;;;;;9.1;100.0;101280;;;;
2022/11/05 00:19:07;;;;;;;1.0;1.0;;;;;;;9.0;100.0;101270;;;;
2022/11/05 00:20:00;;;;;;;1.0;1.0;;;;;;;9.0;100.0;101270;;;;
2022/11/05 00:21:00;;;;;;;1.0;1.0;;;;;;;9.0;100.0;101280;;;;
2022/11/05 00:26:01;;;;;;;1.0;1.0;;;;;;;8.9;100.0;101270;;;;
2022/11/05 00:27:00;;;;;;;1.0;1.0;;;;;;;8.8;100.0;101270;;;;
2022/11/05 00:28:01;;;;;;;1.0;1.0;;;;;;;8.8;100.0;101270;;;;
2022/11/05 00:29:00;;;;;;;1.0;1.0;;;;;;;8.8;100.0;101280;;;;
2022/11/05 00:30:00;;;;;;;1.0;1.0;;;;;;;8.8;100.0;101280;;;;
2022/11/05 00:31:03;;;;;;;1.0;1.0;;;;;;;8.8;100.0;101270;;;;
2022/11/05 00:32:00;;;;;;;1.0;1.0;;;;;;;8.8;100.0;101270;;;;
2022/11/05 00:33:01;;;;;;;1.0;1.0;;;;;;;8.7;100.0;101280;;;;
2022/11/05 00:34:00;;;;;;;1.1;1.1;;;;;;;8.7;100.0;101280;;;;
2022/11/05 00:35:00;;;;;;;1.1;1.1;;;;;;;8.7;100.0;101280;;;;
2022/11/05 00:36:01;;;;;;;1.1;1.1;;;;;;;8.7;100.0;101280;;;;
2022/11/05 00:37:00;;;;;;;1.1;1.1;;;;;;;8.6;100.0;101280;;;;
2022/11/05 00:38:00;;;;;;;1.1;1.1;;;;;;;8.6;100.0;101280;;;;
2022/11/05 00:39:00;;;;;;;1.1;1.1;;;;;;;8.6;100.0;101280;;;;
2022/11/05 00:40:00;;;;;;;1.1;1.1;;;;;;;8.6;100.0;101280;;;;
2022/11/05 00:41:00;;;;;;;1.1;1.1;;;;;;;8.6;100.0;101280;;;;
2022/11/05 00:45:00;;;;;;;1.1;1.1;;;;;;;8.5;100.0;101290;;;;
2022/11/05 00:46:00;;;;;;;1.1;1.1;;;;;;;8.5;100.0;101290;;;;
2022/11/05 00:49:28;;;;;;;1.1;1.1;;;;;;;8.5;100.0;101290;;;;
2022/11/05 00:50:00;;;;;;;1.1;1.1;;;;;;;8.3;100.0;101290;;;;
2022/11/05 00:51:00;;;;;;;1.1;1.1;;;;;;;8.4;100.0;101290;;;;
2022/11/05 00:53:00;;;;;;;1.1;1.1;;;;;;;8.3;100.0;101290;;;;
2022/11/05 00:54:00;;;;;;;1.4;1.4;;;;;;;8.3;100.0;101290;;;;
2022/11/05 00:55:00;;;;;;;1.4;1.4;;;;;;;8.3;100.0;101290;;;;
2022/11/05 00:56:00;;;;;;;1.4;1.4;;;;;;;8.3;100.0;101290;;;;
2022/11/05 00:57:04;;;;;;;1.4;1.4;;;;;;;8.3;100.0;101300;;;;
2022/11/05 00:58:01;;;;;;;1.4;1.4;;;;;;;8.3;100.0;101300;;;;
2022/11/05 00:59:00;;;;;;;1.4;1.4;;;;;;;8.3;100.0;101300;;;;
2022/11/05 01:00:00;;;;;;;1.4;1.4;;;;;;;8.3;100.0;101300;;;;
2022/11/05 01:01:01;;;;;;;1.4;1.4;;;;;;;8.3;100.0;101300;;;;
2022/11/05 01:02:00;;;;;;;1.4;1.4;;;;;;;8.3;100.0;101300;;;;
2022/11/05 01:03:01;;;;;;;1.4;1.4;;;;;;;8.3;100.0;101300;;;;
2022/11/05 01:04:00;;;;;;;1.4;1.4;;;;;;;8.3;100.0;101300;;;;
2022/11/05 01:05:00;;;;;;;1.4;1.4;;;;;;;8.2;100.0;101300;;;;
2022/11/05 01:06:08;;;;;;;1.4;1.4;;;;;;;8.2;100.0;101300;;;;
2022/11/05 01:07:00;;;;;;;1.4;1.4;;;;;;;8.2;100.0;101300;;;;
2022/11/05 01:08:00;;;;;;;1.4;1.4;;;;;;;8.2;100.0;101300;;;;
2022/11/05 01:09:00;;;;;;;1.4;1.4;;;;;;;8.2;100.0;101310;;;;
2022/11/05 01:10:00;;;;;;;1.4;1.4;;;;;;;8.2;100.0;101310;;;;
2022/11/05 01:11:06;;;;;;;1.4;1.4;;;;;;;8.2;100.0;101310;;;;
2022/11/05 01:12:00;;;;;;;1.4;1.4;;;;;;;8.2;100.0;101310;;;;
2022/11/05 01:13:00;;;;;;;1.4;1.4;;;;;;;8.1;100.0;101310;;;;
2022/11/05 01:14:04;;;;;;;1.2;1.2;;;;;;;8.1;100.0;101310;;;;
2022/11/05 01:15:00;;;;;;;1.2;1.2;;;;;;;8.1;100.0;101320;;;;
2022/11/05 01:16:03;;;;;;;1.2;1.2;;;;;;;8.1;100.0;101320;;;;
2022/11/05 01:17:00;;;;;;;1.2;1.2;;;;;;;8.0;100.0;101320;;;;
2022/11/05 01:18:00;;;;;;;1.2;1.2;;;;;;;8.0;100.0;101320;;;;
2022/11/05 01:19:00;;;;;;;1.2;1.2;;;;;;;8.0;100.0;101330;;;;
2022/11/05 01:20:00;;;;;;;1.2;1.2;;;;;;;8.0;100.0;101330;;;;
2022/11/05 01:21:08;;;;;;;1.2;1.2;;;;;;;7.9;100.0;101330;;;;
2022/11/05 01:22:00;;;;;;;1.2;1.2;;;;;;;7.9;100.0;101330;;;;
2022/11/05 01:23:00;;;;;;;1.2;1.2;;;;;;;8.0;100.0;101330;;;;
2022/11/05 01:24:00;;;;;;;1.2;1.2;;;;;;;8.0;100.0;101330;;;;
2022/11/05 01:25:00;;;;;;;1.2;1.2;;;;;;;7.9;100.0;101330;;;;
2022/11/05 01:26:00;;;;;;;1.2;1.2;;;;;;;7.9;100.0;101330;;;;
2022/11/05 01:27:00;;;;;;;1.2;1.2;;;;;;;7.9;100.0;101330;;;;
2022/11/05 01:28:00;;;;;;;1.2;1.2;;;;;;;7.9;100.0;101330;;;;
2022/11/05 01:29:00;;;;;;;1.2;1.2;;;;;;;7.9;100.0;101340;;;;
2022/11/05 01:30:00;;;;;;;1.2;1.2;;;;;;;7.9;100.0;101340;;;;
2022/11/05 01:31:00;;;;;;;1.2;1.2;;;;;;;7.8;100.0;101340;;;;
2022/11/05 01:32:00;;;;;;;1.2;1.2;;;;;;;7.8;100.0;101340;;;;
2022/11/05 01:33:02;;;;;;;1.2;1.2;;;;;;;7.8;100.0;101350;;;;
2022/11/05 01:34:00;;;;;;;1.3;1.3;;;;;;;7.8;100.0;101350;;;;
2022/11/05 01:35:00;;;;;;;1.3;1.3;;;;;;;7.8;100.0;101340;;;;
2022/11/05 01:36:00;;;;;;;1.3;1.3;;;;;;;7.8;100.0;101340;;;;
2022/11/05 01:37:00;;;;;;;1.3;1.3;;;;;;;7.8;100.0;101350;;;;
2022/11/05 01:38:00;;;;;;;1.3;1.3;;;;;;;7.8;100.0;101350;;;;
2022/11/05 01:39:00;;;;;;;1.3;1.3;;;;;;;7.7;100.0;101350;;;;
2022/11/05 01:40:00;;;;;;;1.3;1.3;;;;;;;7.7;100.0;101350;;;;
2022/11/05 01:41:00;;;;;;;1.3;1.3;;;;;;;7.8;100.0;101340;;;;
2022/11/05 01:42:00;;;;;;;1.3;1.3;;;;;;;7.8;100.0;101340;;;;
2022/11/05 01:43:00;;;;;;;1.3;1.3;;;;;;;7.8;100.0;101350;;;;
2022/11/05 01:44:00;;;;;;;1.3;1.3;;;;;;;7.8;100.0;101350;;;;
2022/11/05 01:45:02;;;;;;;1.3;1.3;;;;;;;7.7;100.0;101350;;;;
2022/11/05 01:46:00;;;;;;;1.3;1.3;;;;;;;7.7;100.0;101350;;;;
2022/11/05 01:47:00;;;;;;;1.3;1.3;;;;;;;7.8;100.0;101350;;;;
2022/11/05 01:48:05;;;;;;;1.3;1.3;;;;;;;7.8;100.0;101350;;;;
2022/11/05 01:49:05;;;;;;;1.3;1.3;;;;;;;7.7;100.0;101360;;;;
2022/11/05 01:50:02;;;;;;;1.3;1.3;;;;;;;7.7;100.0;101360;;;;
2022/11/05 01:51:04;;;;;;;1.3;1.3;;;;;;;7.5;100.0;101350;;;;
2022/11/05 01:52:02;;;;;;;1.3;1.3;;;;;;;7.5;100.0;101350;;;;
2022/11/05 01:53:06;;;;;;;1.5;1.5;;;;;;;7.6;100.0;101350;;;;
2022/11/05 01:54:04;;;;;;;1.5;1.5;;;;;;;7.6;100.0;101350;;;;
2022/11/05 01:55:01;;;;;;;1.5;1.5;;;;;;;7.7;100.0;101360;;;;
2022/11/05 01:56:10;;;;;;;1.5;1.5;;;;;;;7.7;100.0;101360;;;;
2022/11/05 01:57:02;;;;;;;1.5;1.5;;;;;;;7.6;100.0;101360;;;;
2022/11/05 01:58:01;;;;;;;1.5;1.5;;;;;;;7.6;100.0;101360;;;;
2022/11/05 01:59:03;;;;;;;1.5;1.5;;;;;;;7.5;100.0;101350;;;;
2022/11/05 02:00:00;;;;;;;1.5;1.5;;;;;;;7.5;100.0;101350;;;;
2022/11/05 02:01:00;;;;;;;1.5;1.5;;;;;;;7.6;100.0;101350;;;;
2022/11/05 02:02:01;;;;;;;1.5;1.5;;;;;;;7.6;100.0;101350;;;;
2022/11/05 02:03:00;;;;;;;1.5;1.5;;;;;;;7.6;100.0;101350;;;;
2022/11/05 02:04:03;;;;;;;1.5;1.5;;;;;;;7.6;100.0;101350;;;;
2022/11/05 02:05:02;;;;;;;1.5;1.5;;;;;;;7.5;100.0;101350;;;;
2022/11/05 02:06:01;;;;;;;1.5;1.5;;;;;;;7.5;100.0;101350;;;;
2022/11/05 02:07:00;;;;;;;1.5;1.5;;;;;;;7.5;100.0;101350;;;;
2022/11/05 02:08:00;;;;;;;1.5;1.5;;;;;;;7.5;100.0;101350;;;;
2022/11/05 02:09:04;;;;;;;1.5;1.5;;;;;;;7.5;100.0;101350;;;;
2022/11/05 02:10:02;;;;;;;1.5;1.5;;;;;;;7.5;100.0;101350;;;;
2022/11/05 02:11:00;;;;;;;1.5;1.5;;;;;;;7.4;100.0;101350;;;;
2022/11/05 02:12:00;;;;;;;1.5;1.5;;;;;;;7.4;100.0;101350;;;;
2022/11/05 02:13:02;;;;;;;1.5;1.5;;;;;;;7.5;100.0;101340;;;;
2022/11/05 02:14:00;;;;;;;1.5;1.5;;;;;;;7.5;100.0;101340;;;;
2022/11/05 02:15:00;;;;;;;1.5;1.5;;;;;;;7.5;100.0;101340;;;;
2022/11/05 02:16:00;;;;;;;1.5;1.5;;;;;;;7.5;100.0;101340;;;;
2022/11/05 02:17:04;;;;;;;1.5;1.5;;;;;;;7.5;100.0;101340;;;;
2022/11/05 02:18:03;;;;;;;1.5;1.5;;;;;;;7.5;100.0;101340;;;;
2022/11/05 02:19:08;;;;;;;1.5;1.5;;;;;;;7.4;100.0;101340;;;;
2022/11/05 02:20:00;;;;;;;1.5;1.5;;;;;;;7.4;100.0;101340;;;;
2022/11/05 02:21:10;;;;;;;1.5;1.5;;;;;;;7.4;100.0;101340;;;;
2022/11/05 02:22:10;;;;;;;1.5;1.5;;;;;;;7.4;100.0;101340;;;;
2022/11/05 02:23:10;;;;;;;1.5;1.5;;;;;;;7.4;100.0;101340;;;;
2022/11/05 02:24:01;;;;;;;1.5;1.5;;;;;;;7.4;100.0;101340;;;;
2022/11/05 02:25:10;;;;;;;1.5;1.5;;;;;;;7.4;100.0;101340;;;;
2022/11/05 02:26:10;;;;;;;1.5;1.5;;;;;;;7.4;100.0;101340;;;;
2022/11/05 02:27:00;;;;;;;1.5;1.5;;;;;;;7.4;100.0;101340;;;;
2022/11/05 02:28:10;;;;;;;1.5;1.5;;;;;;;7.4;100.0;101340;;;;
2022/11/05 02:29:10;;;;;;;1.5;1.5;;;;;;;7.4;100.0;101330;;;;
2022/11/05 02:30:04;;;;;;;1.5;1.5;;;;;;;7.4;100.0;101330;;;;
2022/11/05 02:31:03;;;;;;;1.5;1.5;;;;;;;7.3;100.0;101340;;;;
2022/11/05 02:32:05;;;;;;;1.5;1.5;;;;;;;7.3;100.0;101340;;;;
2022/11/05 02:33:10;;;;;;;1.6;1.6;;;;;;;7.3;100.0;101330;;;;
2022/11/05 02:34:00;;;;;;;1.6;1.6;;;;;;;7.3;100.0;101330;;;;
2022/11/05 02:35:08;;;;;;;1.6;1.6;;;;;;;7.2;100.0;101340;;;;
2022/11/05 02:36:10;;;;;;;1.6;1.6;;;;;;;7.2;100.0;101340;;;;
2022/11/05 02:37:09;;;;;;;1.6;1.6;;;;;;;7.2;100.0;101340;;;;
2022/11/05 02:38:07;;;;;;;1.6;1.6;;;;;;;7.2;100.0;101340;;;;
2022/11/05 02:39:10;;;;;;;1.6;1.6;;;;;;;7.1;100.0;101330;;;;
2022/11/05 02:40:00;;;;;;;1.6;1.6;;;;;;;7.1;100.0;101330;;;;
2022/11/05 02:41:10;;;;;;;1.6;1.6;;;;;;;7.1;100.0;101330;;;;
2022/11/05 02:42:07;;;;;;;1.6;1.6;;;;;;;7.1;100.0;101330;;;;
2022/11/05 02:43:06;;;;;;;1.6;1.6;;;;;;;7.2;100.0;101330;;;;
2022/11/05 02:44:07;;;;;;;1.6;1.6;;;;;;;7.2;100.0;101330;;;;
2022/11/05 02:45:10;;;;;;;1.6;1.6;;;;;;;7.1;100.0;101330;;;;
2022/11/05 02:46:05;;;;;;;1.6;1.6;;;;;;;7.1;100.0;101330;;;;
2022/11/05 02:47:17;;;;;;;1.6;1.6;;;;;;;7.2;100.0;101320;;;;
2022/11/05 02:48:06;;;;;;;1.6;1.6;;;;;;;7.2;100.0;101320;;;;
2022/11/05 02:49:04;;;;;;;1.6;1.6;;;;;;;7.2;100.0;101330;;;;
2022/11/05 02:50:05;;;;;;;1.6;1.6;;;;;;;7.2;100.0;101330;;;;
2022/11/05 02:51:07;;;;;;;1.6;1.6;;;;;;;7.1;100.0;101320;;;;
2022/11/05 02:52:05;;;;;;;1.6;1.6;;;;;;;7.1;100.0;101320;;;;
2022/11/05 02:53:00;;;;;;;1.5;1.5;;;;;;;7.1;100.0;101330;;;;
2022/11/05 02:54:10;;;;;;;1.5;1.5;;;;;;;7.1;100.0;101330;;;;
2022/11/05 02:55:10;;;;;;;1.5;1.5;;;;;;;7.2;100.0;101330;;;;
2022/11/05 02:56:02;;;;;;;1.5;1.5;;;;;;;7.2;100.0;101330;;;;
2022/11/05 02:57:01;;;;;;;1.5;1.5;;;;;;;7.2;100.0;101330;;;;
2022/11/05 02:58:01;;;;;;;1.5;1.5;;;;;;;7.2;100.0;101330;;;;
2022/11/05 02:59:00;;;;;;;1.5;1.5;;;;;;;7.1;100.0;101330;;;;
2022/11/05 03:00:01;;;;;;;1.5;1.5;;;;;;;7.1;100.0;101330;;;;
2022/11/05 03:01:05;;;;;;;1.5;1.5;;;;;;;7.1;100.0;101330;;;;
2022/11/05 03:02:01;;;;;;;1.5;1.5;;;;;;;7.1;100.0;101330;;;;
2022/11/05 03:03:01;;;;;;;1.5;1.5;;;;;;;7.0;100.0;101320;;;;
2022/11/05 03:04:02;;;;;;;1.5;1.5;;;;;;;7.0;100.0;101320;;;;
2022/11/05 03:05:01;;;;;;;1.5;1.5;;;;;;;7.0;100.0;101330;;;;
2022/11/05 03:06:07;;;;;;;1.5;1.5;;;;;;;7.0;100.0;101330;;;;
2022/11/05 03:07:10;;;;;;;1.5;1.5;;;;;;;6.9;100.0;101330;;;;
2022/11/05 03:08:05;;;;;;;1.5;1.5;;;;;;;6.9;100.0;101330;;;;
2022/11/05 03:09:07;;;;;;;1.5;1.5;;;;;;;6.9;100.0;101330;;;;
2022/11/05 03:10:10;;;;;;;1.5;1.5;;;;;;;6.9;100.0;101330;;;;
2022/11/05 03:11:04;;;;;;;1.5;1.5;;;;;;;6.9;100.0;101330;;;;
2022/11/05 03:12:10;;;;;;;1.5;1.5;;;;;;;6.9;100.0;101330;;;;
2022/11/05 03:13:08;;;;;;;1.4;1.4;;;;;;;6.9;100.0;101330;;;;
2022/11/05 03:14:10;;;;;;;1.4;1.4;;;;;;;6.9;100.0;101330;;;;
2022/11/05 03:15:06;;;;;;;1.4;1.4;;;;;;;6.9;100.0;101320;;;;
2022/11/05 03:16:05;;;;;;;1.4;1.4;;;;;;;6.9;100.0;101320;;;;
2022/11/05 03:17:07;;;;;;;1.4;1.4;;;;;;;6.9;100.0;101330;;;;
2022/11/05 03:18:06;;;;;;;1.4;1.4;;;;;;;6.9;100.0;101330;;;;
2022/11/05 03:19:06;;;;;;;1.4;1.4;;;;;;;6.9;100.0;101330;;;;
2022/11/05 03:20:00;;;;;;;1.4;1.4;;;;;;;6.9;100.0;101330;;;;
2022/11/05 03:21:10;;;;;;;1.4;1.4;;;;;;;6.9;100.0;101330;;;;
2022/11/05 03:22:03;;;;;;;1.4;1.4;;;;;;;6.9;100.0;101330;;;;
2022/11/05 03:23:09;;;;;;;1.4;1.4;;;;;;;6.8;100.0;101330;;;;
2022/11/05 03:24:06;;;;;;;1.4;1.4;;;;;;;6.8;100.0;101330;;;;
2022/11/05 03:25:02;;;;;;;1.4;1.4;;;;;;;6.8;100.0;101330;;;;
2022/11/05 03:26:10;;;;;;;1.4;1.4;;;;;;;6.8;100.0;101330;;;;
2022/11/05 03:27:10;;;;;;;1.4;1.4;;;;;;;6.9;100.0;101330;;;;
2022/11/05 03:28:04;;;;;;;1.4;1.4;;;;;;;6.9;100.0;101330;;;;
2022/11/05 03:29:02;;;;;;;1.4;1.4;;;;;;;6.9;100.0;101340;;;;
2022/11/05 03:30:02;;;;;;;1.4;1.4;;;;;;;6.9;100.0;101340;;;;
2022/11/05 03:31:00;;;;;;;1.4;1.4;;;;;;;6.9;100.0;101340;;;;
2022/11/05 03:32:02;;;;;;;1.4;1.4;;;;;;;6.9;100.0;101340;;;;
2022/11/05 03:33:02;;;;;;;3.1;2.9;;;;;;;6.9;100.0;101340;;;;
2022/11/05 03:34:01;;;;;;;3.1;2.9;;;;;;;6.9;100.0;101340;;;;
2022/11/05 03:35:02;;;;;;;3.1;2.9;;;;;;;6.8;100.0;101340;;;;
2022/11/05 03:36:02;;;;;;;3.1;2.9;;;;;;;6.8;100.0;101340;;;;
2022/11/05 03:37:01;;;;;;;3.1;2.9;;;;;;;6.9;100.0;101350;;;;
2022/11/05 03:38:02;;;;;;;3.1;2.9;;;;;;;6.9;100.0;101350;;;;
2022/11/05 03:39:02;;;;;;;3.1;2.9;;;;;;;6.8;100.0;101340;;;;
2022/11/05 03:40:02;;;;;;;3.1;2.9;;;;;;;6.8;100.0;101340;;;;
2022/11/05 03:41:03;;;;;;;3.1;2.9;;;;;;;6.8;100.0;101350;;;;
2022/11/05 03:42:02;;;;;;;3.1;2.9;;;;;;;6.8;100.0;101350;;;;
2022/11/05 03:43:01;;;;;;;3.1;2.9;;;;;;;6.8;100.0;101350;;;;
2022/11/05 03:44:03;;;;;;;3.1;2.9;;;;;;;6.8;100.0;101350;;;;
2022/11/05 03:45:03;;;;;;;3.1;2.9;;;;;;;6.8;100.0;101350;;;;
2022/11/05 03:46:03;;;;;;;3.1;2.9;;;;;;;6.8;100.0;101350;;;;
2022/11/05 03:47:03;;;;;;;3.1;2.9;;;;;;;6.7;100.0;101350;;;;
2022/11/05 03:48:01;;;;;;;3.1;2.9;;;;;;;6.7;100.0;101350;;;;
2022/11/05 03:49:02;;;;;;;3.1;2.9;;;;;;;6.7;100.0;101350;;;;
2022/11/05 03:50:07;;;;;;;3.1;2.9;;;;;;;6.7;100.0;101350;;;;
2022/11/05 03:51:10;;;;;;;3.1;2.9;;;;;;;6.7;100.0;101340;;;;
2022/11/05 03:52:06;;;;;;;3.1;2.9;;;;;;;6.7;100.0;101340;;;;
2022/11/05 03:53:03;;;;;;;1.6;1.6;;;;;;;6.8;100.0;101340;;;;
2022/11/05 03:54:01;;;;;;;1.6;1.6;;;;;;;6.8;100.0;101340;;;;
2022/11/05 03:55:00;;;;;;;1.6;1.6;;;;;;;6.7;100.0;101340;;;;
2022/11/05 03:56:07;;;;;;;1.6;1.6;;;;;;;6.7;100.0;101340;;;;
2022/11/05 03:57:03;;;;;;;1.6;1.6;;;;;;;6.6;100.0;101340;;;;
2022/11/05 03:58:02;;;;;;;1.6;1.6;;;;;;;6.6;100.0;101340;;;;
2022/11/05 03:59:01;;;;;;;1.6;1.6;;;;;;;6.6;100.0;101340;;;;
2022/11/05 04:00:00;;;;;;;1.6;1.6;;;;;;;6.6;100.0;101340;;;;
2022/11/05 04:01:01;;;;;;;1.6;1.6;;;;;;;6.7;100.0;101350;;;;
2022/11/05 04:02:01;;;;;;;1.6;1.6;;;;;;;6.7;100.0;101350;;;;
2022/11/05 04:03:00;;;;;;;1.6;1.6;;;;;;;6.6;100.0;101350;;;;
2022/11/05 04:04:00;;;;;;;1.6;1.6;;;;;;;6.6;100.0;101350;;;;
2022/11/05 04:05:00;;;;;;;1.6;1.6;;;;;;;6.6;100.0;101350;;;;
2022/11/05 04:14:00;;;;;;;1.5;1.5;;;;;;;6.5;100.0;101350;;;;
2022/11/05 04:15:00;;;;;;;1.5;1.5;;;;;;;6.4;100.0;101360;;;;
2022/11/05 04:17:08;;;;;;;1.5;1.5;;;;;;;6.5;100.0;101360;;;;
2022/11/05 04:18:00;;;;;;;1.5;1.5;;;;;;;6.5;100.0;101360;;;;
2022/11/05 04:19:00;;;;;;;1.5;1.5;;;;;;;6.4;100.0;101360;;;;
2022/11/05 04:24:07;;;;;;;1.5;1.5;;;;;;;6.4;100.0;101370;;;;
2022/11/05 04:25:00;;;;;;;1.5;1.5;;;;;;;6.5;100.0;101370;;;;
2022/11/05 04:26:00;;;;;;;1.5;1.5;;;;;;;6.5;100.0;101370;;;;
2022/11/05 04:27:00;;;;;;;1.5;1.5;;;;;;;6.3;100.0;101370;;;;
2022/11/05 04:28:00;;;;;;;1.5;1.5;;;;;;;6.3;100.0;101370;;;;
2022/11/05 04:31:00;;;;;;;1.5;1.5;;;;;;;6.4;100.0;101370;;;;
2022/11/05 04:32:00;;;;;;;1.5;1.5;;;;;;;6.4;100.0;101370;;;;
2022/11/05 04:33:02;;;;;;;1.8;1.8;;;;;;;6.4;100.0;101360;;;;
2022/11/05 04:34:00;;;;;;;1.8;1.8;;;;;;;6.4;100.0;101360;;;;
2022/11/05 04:35:00;;;;;;;1.8;1.8;;;;;;;6.4;100.0;101370;;;;
2022/11/05 04:36:00;;;;;;;1.8;1.8;;;;;;;6.4;100.0;101370;;;;
2022/11/05 04:37:00;;;;;;;1.8;1.8;;;;;;;6.2;100.0;101370;;;;
2022/11/05 04:38:00;;;;;;;1.8;1.8;;;;;;;6.2;100.0;101370;;;;
2022/11/05 04:39:00;;;;;;;1.8;1.8;;;;;;;6.2;100.0;101380;;;;
2022/11/05 04:40:00;;;;;;;1.8;1.8;;;;;;;6.2;100.0;101380;;;;
2022/11/05 04:41:10;;;;;;;1.8;1.8;;;;;;;6.2;100.0;101380;;;;
2022/11/05 04:42:00;;;;;;;1.8;1.8;;;;;;;6.2;100.0;101380;;;;
2022/11/05 04:43:00;;;;;;;1.8;1.8;;;;;;;6.2;100.0;101380;;;;
2022/11/05 04:44:00;;;;;;;1.8;1.8;;;;;;;6.2;100.0;101380;;;;
2022/11/05 04:45:00;;;;;;;1.8;1.8;;;;;;;6.2;100.0;101380;;;;
2022/11/05 04:46:00;;;;;;;1.8;1.8;;;;;;;6.2;100.0;101380;;;;
2022/11/05 04:47:00;;;;;;;1.8;1.8;;;;;;;6.2;100.0;101380;;;;
2022/11/05 04:48:01;;;;;;;1.8;1.8;;;;;;;6.2;100.0;101380;;;;
2022/11/05 04:49:00;;;;;;;1.8;1.8;;;;;;;6.1;100.0;101380;;;;
2022/11/05 04:50:00;;;;;;;1.8;1.8;;;;;;;6.1;100.0;101380;;;;
2022/11/05 04:51:00;;;;;;;1.8;1.8;;;;;;;6.0;100.0;101380;;;;
2022/11/05 04:52:00;;;;;;;1.8;1.8;;;;;;;6.0;100.0;101380;;;;
2022/11/05 04:53:00;;;;;;;1.8;1.8;;;;;;;6.1;100.0;101390;;;;
2022/11/05 04:54:00;;;;;;;1.8;1.8;;;;;;;6.1;100.0;101390;;;;
2022/11/05 04:55:00;;;;;;;1.8;1.8;;;;;;;6.1;100.0;101380;;;;
2022/11/05 04:56:08;;;;;;;1.8;1.8;;;;;;;6.1;100.0;101380;;;;
2022/11/05 04:57:00;;;;;;;1.8;1.8;;;;;;;6.1;100.0;101390;;;;
2022/11/05 04:58:00;;;;;;;1.8;1.8;;;;;;;6.1;100.0;101390;;;;
2022/11/05 04:59:00;;;;;;;1.8;1.8;;;;;;;6.2;100.0;101390;;;;
2022/11/05 05:00:00;;;;;;;1.8;1.8;;;;;;;6.2;100.0;101390;;;;
2022/11/05 05:01:00;;;;;;;1.8;1.8;;;;;;;6.2;100.0;101390;;;;
2022/11/05 05:02:00;;;;;;;1.8;1.8;;;;;;;6.2;100.0;101390;;;;
2022/11/05 05:03:00;;;;;;;1.8;1.8;;;;;;;6.2;100.0;101380;;;;
2022/11/05 05:04:00;;;;;;;1.8;1.8;;;;;;;6.2;100.0;101380;;;;
2022/11/05 05:05:00;;;;;;;1.8;1.8;;;;;;;6.2;100.0;101380;;;;
2022/11/05 05:06:04;;;;;;;1.8;1.8;;;;;;;6.2;100.0;101380;;;;
2022/11/05 05:07:00;;;;;;;1.8;1.8;;;;;;;6.2;100.0;101380;;;;
2022/11/05 05:08:00;;;;;;;1.8;1.8;;;;;;;6.2;100.0;101380;;;;
2022/11/05 05:09:00;;;;;;;1.8;1.8;;;;;;;6.1;100.0;101390;;;;
2022/11/05 05:10:00;;;;;;;1.8;1.8;;;;;;;6.1;100.0;101390;;;;
2022/11/05 05:11:01;;;;;;;1.8;1.8;;;;;;;6.0;100.0;101400;;;;
2022/11/05 05:12:01;;;;;;;1.8;1.8;;;;;;;6.0;100.0;101400;;;;
2022/11/05 05:13:00;;;;;;;1.5;1.5;;;;;;;6.0;100.0;101400;;;;
2022/11/05 05:14:00;;;;;;;1.5;1.5;;;;;;;6.0;100.0;101400;;;;
2022/11/05 05:15:00;;;;;;;1.5;1.5;;;;;;;6.1;100.0;101400;;;;
2022/11/05 05:16:04;;;;;;;1.5;1.5;;;;;;;6.1;100.0;101400;;;;
2022/11/05 05:17:00;;;;;;;1.5;1.5;;;;;;;6.0;100.0;101400;;;;
2022/11/05 05:18:00;;;;;;;1.5;1.5;;;;;;;6.0;100.0;101400;;;;
2022/11/05 05:19:00;;;;;;;1.5;1.5;;;;;;;6.0;100.0;101410;;;;
2022/11/05 05:22:00;;;;;;;1.5;1.5;;;;;;;5.9;100.0;101410;;;;
2022/11/05 05:23:00;;;;;;;1.5;1.5;;;;;;;5.9;100.0;101410;;;;
2022/11/05 05:24:00;;;;;;;1.5;1.5;;;;;;;5.9;100.0;101410;;;;
2022/11/05 05:25:00;;;;;;;1.5;1.5;;;;;;;5.9;100.0;101410;;;;
2022/11/05 05:26:00;;;;;;;1.5;1.5;;;;;;;5.9;100.0;101410;;;;
2022/11/05 05:27:00;;;;;;;1.5;1.5;;;;;;;5.8;100.0;101410;;;;
2022/11/05 05:28:00;;;;;;;1.5;1.5;;;;;;;5.8;100.0;101410;;;;
2022/11/05 05:29:00;;;;;;;1.5;1.5;;;;;;;5.8;100.0;101410;;;;
2022/11/05 05:30:00;;;;;;;1.5;1.5;;;;;;;5.8;100.0;101410;;;;
2022/11/05 05:31:00;;;;;;;1.5;1.5;;;;;;;5.9;100.0;101410;;;;
2022/11/05 05:32:00;;;;;;;1.5;1.5;;;;;;;5.9;100.0;101410;;;;
2022/11/05 05:33:00;;;;;;;1.8;1.8;;;;;;;6.0;100.0;101410;;;;
2022/11/05 05:34:00;;;;;;;1.8;1.8;;;;;;;6.0;100.0;101410;;;;
2022/11/05 05:35:00;;;;;;;1.8;1.8;;;;;;;6.1;100.0;101410;;;;
2022/11/05 05:36:01;;;;;;;1.8;1.8;;;;;;;6.1;100.0;101410;;;;
2022/11/05 05:37:00;;;;;;;1.8;1.8;;;;;;;5.9;100.0;101410;;;;
2022/11/05 05:38:00;;;;;;;1.8;1.8;;;;;;;5.9;100.0;101410;;;;
2022/11/05 05:39:00;;;;;;;1.8;1.8;;;;;;;5.8;100.0;101410;;;;
2022/11/05 05:40:00;;;;;;;1.8;1.8;;;;;;;5.8;100.0;101410;;;;
2022/11/05 05:41:00;;;;;;;1.8;1.8;;;;;;;5.8;100.0;101410;;;;
2022/11/05 05:42:00;;;;;;;1.8;1.8;;;;;;;5.8;100.0;101410;;;;
2022/11/05 05:43:00;;;;;;;1.8;1.8;;;;;;;5.8;100.0;101410;;;;
2022/11/05 05:44:00;;;;;;;1.8;1.8;;;;;;;5.8;100.0;101410;;;;
2022/11/05 05:45:00;;;;;;;1.8;1.8;;;;;;;5.9;100.0;101410;;;;
2022/11/05 05:46:00;;;;;;;1.8;1.8;;;;;;;5.9;100.0;101410;;;;
2022/11/05 05:47:00;;;;;;;1.8;1.8;;;;;;;6.0;100.0;101410;;;;
2022/11/05 05:48:00;;;;;;;1.8;1.8;;;;;;;6.0;100.0;101410;;;;
2022/11/05 05:49:00;;;;;;;1.8;1.8;;;;;;;5.8;100.0;101400;;;;
2022/11/05 05:50:00;;;;;;;1.8;1.8;;;;;;;5.8;100.0;101400;;;;
2022/11/05 05:51:01;;;;;;;1.8;1.8;;;;;;;5.8;100.0;101410;;;;
2022/11/05 05:52:00;;;;;;;1.8;1.8;;;;;;;5.8;100.0;101410;;;;
2022/11/05 05:53:00;;;;;;;1.8;1.8;;;;;;;5.8;100.0;101410;;;;
2022/11/05 05:54:00;;;;;;;1.8;1.8;;;;;;;5.8;100.0;101410;;;;
2022/11/05 05:55:00;;;;;;;1.8;1.8;;;;;;;5.8;100.0;101420;;;;
2022/11/05 05:56:00;;;;;;;1.8;1.8;;;;;;;5.8;100.0;101420;;;;
2022/11/05 05:57:00;;;;;;;1.8;1.8;;;;;;;5.9;100.0;101420;;;;
2022/11/05 05:58:00;;;;;;;1.8;1.8;;;;;;;5.9;100.0;101420;;;;
2022/11/05 05:59:00;;;;;;;1.8;1.8;;;;;;;5.8;100.0;101430;;;;
2022/11/05 06:00:00;;;;;;;1.8;1.8;;;;;;;5.8;100.0;101430;;;;
2022/11/05 06:01:01;;;;;;;1.8;1.8;;;;;;;5.8;100.0;101430;;;;
2022/11/05 06:02:00;;;;;;;1.8;1.8;;;;;;;5.8;100.0;101430;;;;
2022/11/05 06:03:00;;;;;;;1.8;1.8;;;;;;;5.9;100.0;101430;;;;
2022/11/05 06:04:00;;;;;;;1.8;1.8;;;;;;;5.9;100.0;101430;;;;
2022/11/05 06:05:00;;;;;;;1.8;1.8;;;;;;;5.9;100.0;101420;;;;
2022/11/05 06:06:01;;;;;;;1.8;1.8;;;;;;;5.9;100.0;101420;;;;
2022/11/05 06:07:00;;;;;;;1.8;1.8;;;;;;;5.9;100.0;101420;;;;
2022/11/05 06:08:00;;;;;;;1.8;1.8;;;;;;;5.9;100.0;101420;;;;
2022/11/05 06:09:00;;;;;;;1.8;1.8;;;;;;;5.9;100.0;101420;;;;
2022/11/05 06:10:00;;;;;;;1.8;1.8;;;;;;;5.9;100.0;101420;;;;
2022/11/05 06:11:01;;;;;;;1.8;1.8;;;;;;;5.8;100.0;101410;;;;
2022/11/05 06:12:00;;;;;;;1.8;1.8;;;;;;;5.8;100.0;101410;;;;
2022/11/05 06:13:00;;;;;;;1.6;1.6;;;;;;;5.7;100.0;101420;;;;
2022/11/05 06:14:01;;;;;;;1.6;1.6;;;;;;;5.7;100.0;101420;;;;
2022/11/05 06:15:00;;;;;;;1.6;1.6;;;;;;;5.7;100.0;101430;;;;
2022/11/05 06:16:01;;;;;;;1.6;1.6;;;;;;;5.7;100.0;101430;;;;
2022/11/05 06:17:00;;;;;;;1.6;1.6;;;;;;;5.6;100.0;101420;;;;
2022/11/05 06:18:00;;;;;;;1.6;1.6;;;;;;;5.6;100.0;101420;;;;
2022/11/05 06:19:00;;;;;;;1.6;1.6;;;;;;;5.7;100.0;101420;;;;
2022/11/05 06:20:00;;;;;;;1.6;1.6;;;;;;;5.7;100.0;101420;;;;
2022/11/05 06:21:01;;;;;;;1.6;1.6;;;;;;;5.7;100.0;101430;;;;
2022/11/05 06:22:00;;;;;;;1.6;1.6;;;;;;;5.7;100.0;101430;;;;
2022/11/05 06:23:00;;;;;;;1.6;1.6;;;;;;;5.7;100.0;101420;;;;
2022/11/05 06:24:01;;;;;;;1.6;1.6;;;;;;;5.7;100.0;101420;;;;
2022/11/05 06:25:00;;;;;;;1.6;1.6;;;;;;;5.8;100.0;101420;;;;
2022/11/05 06:26:01;;;;;;;1.6;1.6;;;;;;;5.8;100.0;101420;;;;
2022/11/05 06:27:00;;;;;;;1.6;1.6;;;;;;;5.7;100.0;101430;;;;
2022/11/05 06:28:00;;;;;;;1.6;1.6;;;;;;;5.7;100.0;101430;;;;
2022/11/05 06:29:00;;;;;;;1.6;1.6;;;;;;;5.7;100.0;101430;;;;
2022/11/05 06:30:00;;;;;;;1.6;1.6;;;;;;;5.7;100.0;101430;;;;
2022/11/05 06:31:00;;;;;;;1.6;1.6;;;;;;;5.6;100.0;101430;;;;
2022/11/05 06:32:00;;;;;;;1.7;1.7;;;;;;;5.6;100.0;101430;;;;
2022/11/05 06:33:01;;;;;;;1.7;1.7;;;;;;;5.7;100.0;101430;;;;
2022/11/05 06:34:00;;;;;;;1.7;1.7;;;;;;;5.7;100.0;101430;;;;
2022/11/05 06:35:00;;;;;;;1.7;1.7;;;;;;;5.6;100.0;101430;;;;
2022/11/05 06:36:00;;;;;;;1.7;1.7;;;;;;;5.6;100.0;101430;;;;
2022/11/05 06:37:00;;;;;;;1.7;1.7;;;;;;;5.6;100.0;101430;;;;
2022/11/05 06:38:00;;;;;;;1.7;1.7;;;;;;;5.6;100.0;101430;;;;
2022/11/05 06:39:00;;;;;;;1.7;1.7;;;;;;;5.6;100.0;101430;;;;
2022/11/05 06:40:00;;;;;;;1.7;1.7;;;;;;;5.6;100.0;101430;;;;
2022/11/05 06:41:05;;;;;;;1.7;1.7;;;;;;;5.7;100.0;101440;;;;
2022/11/05 06:42:10;;;;;;;1.7;1.7;;;;;;;5.7;100.0;101440;;;;
2022/11/05 06:43:00;;;;;;;1.7;1.7;;;;;;;5.7;100.0;101440;;;;
2022/11/05 06:44:00;;;;;;;1.7;1.7;;;;;;;5.7;100.0;101440;;;;
2022/11/05 06:45:00;;;;;;;1.7;1.7;;;;;;;5.6;100.0;101440;;;;
2022/11/05 06:46:01;;;;;;;1.7;1.7;;;;;;;5.6;100.0;101440;;;;
2022/11/05 06:47:00;;;;;;;1.7;1.7;;;;;;;5.7;100.0;101440;;;;
2022/11/05 06:48:00;;;;;;;1.7;1.7;;;;;;;5.7;100.0;101440;;;;
2022/11/05 06:49:00;;;;;;;1.7;1.7;;;;;;;5.7;100.0;101440;;;;
2022/11/05 06:50:00;;;;;;;1.7;1.7;;;;;;;5.7;100.0;101440;;;;
2022/11/05 06:51:00;;;;;;;1.7;1.7;;;;;;;5.6;100.0;101440;;;;
2022/11/05 06:52:00;;;;;;;2.0;2.0;;;;;;;5.6;100.0;101440;;;;
2022/11/05 06:53:01;;;;;;;2.0;2.0;;;;;;;5.6;100.0;101430;;;;
2022/11/05 06:54:00;;;;;;;2.0;2.0;;;;;;;5.6;100.0;101430;;;;
2022/11/05 06:55:00;;;;;;;2.0;2.0;;;;;;;5.6;100.0;101440;;;;
2022/11/05 06:56:02;;;;;;;2.0;2.0;;;;;;;5.6;100.0;101440;;;;
2022/11/05 06:57:00;;;;;;;2.0;2.0;;;;;;;5.6;100.0;101440;;;;
2022/11/05 06:58:00;;;;;;;2.0;2.0;;;;;;;5.6;100.0;101440;;;;
2022/11/05 06:59:00;;;;;;;2.0;2.0;;;;;;;5.6;100.0;101440;;;;
2022/11/05 07:00:07;;;;;;;2.0;2.0;;;;;;;5.6;100.0;101440;;;;
2022/11/05 07:01:01;;;;;;;2.0;2.0;;;;;;;5.6;100.0;101440;;;;
2022/11/05 07:02:00;;;;;;;2.0;2.0;;;;;;;5.6;100.0;101440;;;;
2022/11/05 07:03:04;;;;;;;2.0;2.0;;;;;;;5.6;100.0;101450;;;;
2022/11/05 07:04:00;;;;;;;2.0;2.0;;;;;;;5.6;100.0;101450;;;;
2022/11/05 07:05:00;;;;;;;2.0;2.0;;;;;;;5.6;100.0;101450;;;;
2022/11/05 07:06:01;;;;;;;2.0;2.0;;;;;;;5.6;100.0;101450;;;;
2022/11/05 07:07:00;;;;;;;2.0;2.0;;;;;;;5.6;100.0;101450;;;;
2022/11/05 07:08:00;;;;;;;2.0;2.0;;;;;;;5.6;100.0;101450;;;;
2022/11/05 07:09:00;;;;;;;2.0;2.0;;;;;;;5.6;100.0;101450;;;;
2022/11/05 07:10:00;;;;;;;2.0;2.0;;;;;;;5.6;100.0;101450;;;;
2022/11/05 07:11:00;;;;;;;2.0;2.0;;;;;;;5.6;100.0;101460;;;;